sensor_id;sensor_type;location;lat;lon;timestamp;temperature;humidity
26336;DHT22;14047;50.936;4.654;2024-02-26T00:00:25;8.70;99.90
26336;DHT22;14047;50.936;4.654;2024-02-26T00:02:51;8.70;99.90
26336;DHT22;14047;50.936;4.654;2024-02-26T00:05:17;8.60;99.90
26336;DHT22;14047;50.936;4.654;2024-02-26T00:07:43;8.50;99.90
26336;DHT22;14047;50.936;4.654;2024-02-26T00:10:10;8.60;99.90
26336;DHT22;14047;50.936;4.654;2024-02-26T00:12:36;8.60;99.90
26336;DHT22;14047;50.936;4.654;2024-02-26T00:15:06;8.40;99.90
26336;DHT22;14047;50.936;4.654;2024-02-26T00:17:32;8.30;99.90
26336;DHT22;14047;50.936;4.654;2024-02-26T00:19:58;8.20;99.90
26336;DHT22;14047;50.936;4.654;2024-02-26T00:22:26;8.10;99.90
26336;DHT22;14047;50.936;4.654;2024-02-26T00:24:52;7.90;99.90
26336;DHT22;14047;50.936;4.654;2024-02-26T00:27:18;7.90;99.90
26336;DHT22;14047;50.936;4.654;2024-02-26T00:29:44;7.90;99.90
26336;DHT22;14047;50.936;4.654;2024-02-26T00:32:10;8.10;99.90
26336;DHT22;14047;50.936;4.654;2024-02-26T00:34:36;8.00;99.90
26336;DHT22;14047;50.936;4.654;2024-02-26T00:37:02;8.10;99.90
26336;DHT22;14047;50.936;4.654;2024-02-26T00:39:28;8.20;99.90
26336;DHT22;14047;50.936;4.654;2024-02-26T00:41:54;8.10;99.90
26336;DHT22;14047;50.936;4.654;2024-02-26T00:44:20;8.00;99.90
26336;DHT22;14047;50.936;4.654;2024-02-26T00:46:45;7.90;99.90
26336;DHT22;14047;50.936;4.654;2024-02-26T00:49:11;8.00;99.90
26336;DHT22;14047;50.936;4.654;2024-02-26T00:51:38;7.80;99.90
26336;DHT22;14047;50.936;4.654;2024-02-26T00:54:04;7.90;99.90
26336;DHT22;14047;50.936;4.654;2024-02-26T00:56:29;7.90;99.90
26336;DHT22;14047;50.936;4.654;2024-02-26T00:58:55;7.80;99.90
26336;DHT22;14047;50.936;4.654;2024-02-26T01:01:21;7.60;99.90
26336;DHT22;14047;50.936;4.654;2024-02-26T01:03:47;7.60;99.90
26336;DHT22;14047;50.936;4.654;2024-02-26T01:06:13;7.80;99.90
26336;DHT22;14047;50.936;4.654;2024-02-26T01:08:39;7.70;99.90
26336;DHT22;14047;50.936;4.654;2024-02-26T01:11:05;7.80;99.90
26336;DHT22;14047;50.936;4.654;2024-02-26T01:13:31;7.90;99.90
26336;DHT22;14047;50.936;4.654;2024-02-26T01:15:57;7.90;99.90
26336;DHT22;14047;50.936;4.654;2024-02-26T01:18:23;7.80;99.90
26336;DHT22;14047;50.936;4.654;2024-02-26T01:20:49;7.60;99.90
26336;DHT22;14047;50.936;4.654;2024-02-26T01:23:15;7.50;99.90
26336;DHT22;14047;50.936;4.654;2024-02-26T01:25:41;7.40;99.90
26336;DHT22;14047;50.936;4.654;2024-02-26T01:28:08;7.40;99.90
26336;DHT22;14047;50.936;4.654;2024-02-26T01:30:34;7.40;99.90
26336;DHT22;14047;50.936;4.654;2024-02-26T01:33:00;7.40;99.90
26336;DHT22;14047;50.936;4.654;2024-02-26T01:35:26;7.10;99.90
26336;DHT22;14047;50.936;4.654;2024-02-26T01:37:52;7.10;99.90
26336;DHT22;14047;50.936;4.654;2024-02-26T01:40:18;7.10;99.90
26336;DHT22;14047;50.936;4.654;2024-02-26T01:42:45;7.20;99.90
26336;DHT22;14047;50.936;4.654;2024-02-26T01:45:16;7.10;99.90
26336;DHT22;14047;50.936;4.654;2024-02-26T01:47:53;7.00;99.90
26336;DHT22;14047;50.936;4.654;2024-02-26T01:50:20;7.10;99.90
26336;DHT22;14047;50.936;4.654;2024-02-26T01:52:49;6.90;99.90
26336;DHT22;14047;50.936;4.654;2024-02-26T01:55:16;6.80;99.90
26336;DHT22;14047;50.936;4.654;2024-02-26T01:57:44;6.90;99.90
26336;DHT22;14047;50.936;4.654;2024-02-26T02:00:11;7.00;99.90
26336;DHT22;14047;50.936;4.654;2024-02-26T02:02:38;7.00;99.90
26336;DHT22;14047;50.936;4.654;2024-02-26T02:05:06;7.00;99.90
26336;DHT22;14047;50.936;4.654;2024-02-26T02:07:35;7.00;99.90
26336;DHT22;14047;50.936;4.654;2024-02-26T02:10:01;7.20;99.90
26336;DHT22;14047;50.936;4.654;2024-02-26T02:12:28;7.20;99.90
26336;DHT22;14047;50.936;4.654;2024-02-26T02:14:54;7.00;99.90
26336;DHT22;14047;50.936;4.654;2024-02-26T02:17:20;6.90;99.90
26336;DHT22;14047;50.936;4.654;2024-02-26T02:19:46;6.80;99.90
26336;DHT22;14047;50.936;4.654;2024-02-26T02:22:12;6.70;99.90
26336;DHT22;14047;50.936;4.654;2024-02-26T02:24:38;6.60;99.90
26336;DHT22;14047;50.936;4.654;2024-02-26T02:27:04;6.70;99.90
26336;DHT22;14047;50.936;4.654;2024-02-26T02:29:30;6.60;99.90
26336;DHT22;14047;50.936;4.654;2024-02-26T02:31:56;6.60;99.90
26336;DHT22;14047;50.936;4.654;2024-02-26T02:34:23;6.50;99.90
26336;DHT22;14047;50.936;4.654;2024-02-26T02:36:51;6.50;99.90
26336;DHT22;14047;50.936;4.654;2024-02-26T02:39:17;6.50;99.90
26336;DHT22;14047;50.936;4.654;2024-02-26T02:41:44;6.50;99.90
26336;DHT22;14047;50.936;4.654;2024-02-26T02:44:10;6.50;99.90
26336;DHT22;14047;50.936;4.654;2024-02-26T02:46:36;6.40;99.90
26336;DHT22;14047;50.936;4.654;2024-02-26T02:49:02;6.50;99.90
26336;DHT22;14047;50.936;4.654;2024-02-26T02:51:28;6.60;99.90
26336;DHT22;14047;50.936;4.654;2024-02-26T02:53:54;6.70;99.90
26336;DHT22;14047;50.936;4.654;2024-02-26T02:56:20;6.70;99.90
26336;DHT22;14047;50.936;4.654;2024-02-26T02:58:45;6.60;99.90
26336;DHT22;14047;50.936;4.654;2024-02-26T03:01:13;6.60;99.90
26336;DHT22;14047;50.936;4.654;2024-02-26T03:03:39;6.50;99.90
26336;DHT22;14047;50.936;4.654;2024-02-26T03:06:05;6.50;99.90
26336;DHT22;14047;50.936;4.654;2024-02-26T03:08:31;6.40;99.90
26336;DHT22;14047;50.936;4.654;2024-02-26T03:10:58;6.50;99.90
26336;DHT22;14047;50.936;4.654;2024-02-26T03:13:24;6.60;99.90
26336;DHT22;14047;50.936;4.654;2024-02-26T03:15:50;6.50;99.90
26336;DHT22;14047;50.936;4.654;2024-02-26T03:18:16;6.50;99.90
26336;DHT22;14047;50.936;4.654;2024-02-26T03:20:42;6.40;99.90
26336;DHT22;14047;50.936;4.654;2024-02-26T03:23:08;6.50;99.90
26336;DHT22;14047;50.936;4.654;2024-02-26T03:25:38;6.40;99.90
26336;DHT22;14047;50.936;4.654;2024-02-26T03:28:04;6.40;99.90
26336;DHT22;14047;50.936;4.654;2024-02-26T03:30:31;6.30;99.90
26336;DHT22;14047;50.936;4.654;2024-02-26T03:32:56;6.40;99.90
26336;DHT22;14047;50.936;4.654;2024-02-26T03:35:22;6.40;99.90
26336;DHT22;14047;50.936;4.654;2024-02-26T03:37:48;6.50;99.90
26336;DHT22;14047;50.936;4.654;2024-02-26T03:40:16;6.40;99.90
26336;DHT22;14047;50.936;4.654;2024-02-26T03:42:44;6.30;99.90
26336;DHT22;14047;50.936;4.654;2024-02-26T03:45:10;6.30;99.90
26336;DHT22;14047;50.936;4.654;2024-02-26T03:47:38;6.30;99.90
26336;DHT22;14047;50.936;4.654;2024-02-26T03:50:07;6.30;99.90
26336;DHT22;14047;50.936;4.654;2024-02-26T03:52:33;6.40;99.90
26336;DHT22;14047;50.936;4.654;2024-02-26T03:55:00;6.40;99.90
26336;DHT22;14047;50.936;4.654;2024-02-26T03:57:26;6.30;99.90
26336;DHT22;14047;50.936;4.654;2024-02-26T03:59:52;6.50;99.90
26336;DHT22;14047;50.936;4.654;2024-02-26T04:02:18;6.50;99.90
26336;DHT22;14047;50.936;4.654;2024-02-26T04:04:46;6.40;99.90
26336;DHT22;14047;50.936;4.654;2024-02-26T04:07:12;6.30;99.90
26336;DHT22;14047;50.936;4.654;2024-02-26T04:09:39;6.30;99.90
26336;DHT22;14047;50.936;4.654;2024-02-26T04:12:05;6.30;99.90
26336;DHT22;14047;50.936;4.654;2024-02-26T04:14:31;6.40;99.90
26336;DHT22;14047;50.936;4.654;2024-02-26T04:16:57;6.30;99.90
26336;DHT22;14047;50.936;4.654;2024-02-26T04:19:23;6.20;99.90
26336;DHT22;14047;50.936;4.654;2024-02-26T04:21:49;6.20;99.90
26336;DHT22;14047;50.936;4.654;2024-02-26T04:24:15;6.30;99.90
26336;DHT22;14047;50.936;4.654;2024-02-26T04:26:41;6.40;99.90
26336;DHT22;14047;50.936;4.654;2024-02-26T04:29:07;6.50;99.90
26336;DHT22;14047;50.936;4.654;2024-02-26T04:31:33;6.30;99.90
26336;DHT22;14047;50.936;4.654;2024-02-26T04:33:59;6.30;99.90
26336;DHT22;14047;50.936;4.654;2024-02-26T04:36:25;6.30;99.90
26336;DHT22;14047;50.936;4.654;2024-02-26T04:38:53;6.30;99.90
26336;DHT22;14047;50.936;4.654;2024-02-26T04:41:22;6.30;99.90
26336;DHT22;14047;50.936;4.654;2024-02-26T04:43:48;6.40;99.90
26336;DHT22;14047;50.936;4.654;2024-02-26T04:46:14;6.50;99.90
26336;DHT22;14047;50.936;4.654;2024-02-26T04:48:40;6.50;99.90
26336;DHT22;14047;50.936;4.654;2024-02-26T04:51:08;6.40;99.90
26336;DHT22;14047;50.936;4.654;2024-02-26T04:53:34;6.50;99.90
26336;DHT22;14047;50.936;4.654;2024-02-26T04:56:00;6.60;99.90
26336;DHT22;14047;50.936;4.654;2024-02-26T04:58:26;6.60;99.90
26336;DHT22;14047;50.936;4.654;2024-02-26T05:00:52;6.60;99.90
26336;DHT22;14047;50.936;4.654;2024-02-26T05:03:17;6.50;99.90
26336;DHT22;14047;50.936;4.654;2024-02-26T05:05:43;6.40;99.90
26336;DHT22;14047;50.936;4.654;2024-02-26T05:08:10;6.30;99.90
26336;DHT22;14047;50.936;4.654;2024-02-26T05:10:37;6.20;99.90
26336;DHT22;14047;50.936;4.654;2024-02-26T05:13:07;6.20;99.90
26336;DHT22;14047;50.936;4.654;2024-02-26T05:15:33;6.30;99.90
26336;DHT22;14047;50.936;4.654;2024-02-26T05:17:59;6.20;99.90
26336;DHT22;14047;50.936;4.654;2024-02-26T05:20:25;6.20;99.90
26336;DHT22;14047;50.936;4.654;2024-02-26T05:22:51;6.20;99.90
26336;DHT22;14047;50.936;4.654;2024-02-26T05:25:17;6.30;99.90
26336;DHT22;14047;50.936;4.654;2024-02-26T05:27:44;6.30;99.90
26336;DHT22;14047;50.936;4.654;2024-02-26T05:30:11;6.30;99.90
26336;DHT22;14047;50.936;4.654;2024-02-26T05:32:37;6.30;99.90
26336;DHT22;14047;50.936;4.654;2024-02-26T05:35:03;6.30;99.90
26336;DHT22;14047;50.936;4.654;2024-02-26T05:37:30;6.30;99.90
26336;DHT22;14047;50.936;4.654;2024-02-26T05:39:56;6.20;99.90
26336;DHT22;14047;50.936;4.654;2024-02-26T05:42:22;6.20;99.90
26336;DHT22;14047;50.936;4.654;2024-02-26T05:44:48;6.10;99.90
26336;DHT22;14047;50.936;4.654;2024-02-26T05:47:14;6.10;99.90
26336;DHT22;14047;50.936;4.654;2024-02-26T05:49:40;6.10;99.90
26336;DHT22;14047;50.936;4.654;2024-02-26T05:52:06;6.20;99.90
26336;DHT22;14047;50.936;4.654;2024-02-26T05:54:32;6.20;99.90
26336;DHT22;14047;50.936;4.654;2024-02-26T05:56:58;6.20;99.90
26336;DHT22;14047;50.936;4.654;2024-02-26T05:59:24;6.10;99.90
26336;DHT22;14047;50.936;4.654;2024-02-26T06:01:50;6.20;99.90
26336;DHT22;14047;50.936;4.654;2024-02-26T06:04:16;6.10;99.90
26336;DHT22;14047;50.936;4.654;2024-02-26T06:06:45;6.20;99.90
26336;DHT22;14047;50.936;4.654;2024-02-26T06:09:15;6.20;99.90
26336;DHT22;14047;50.936;4.654;2024-02-26T06:11:41;6.30;99.90
26336;DHT22;14047;50.936;4.654;2024-02-26T06:14:07;6.20;99.90
26336;DHT22;14047;50.936;4.654;2024-02-26T06:16:33;6.10;99.90
26336;DHT22;14047;50.936;4.654;2024-02-26T06:18:59;6.00;99.90
26336;DHT22;14047;50.936;4.654;2024-02-26T06:21:25;6.10;99.90
26336;DHT22;14047;50.936;4.654;2024-02-26T06:23:51;6.10;99.90
26336;DHT22;14047;50.936;4.654;2024-02-26T06:26:17;6.20;99.90
26336;DHT22;14047;50.936;4.654;2024-02-26T06:28:43;6.10;99.90
26336;DHT22;14047;50.936;4.654;2024-02-26T06:31:10;6.00;99.90
26336;DHT22;14047;50.936;4.654;2024-02-26T06:33:36;6.10;99.90
26336;DHT22;14047;50.936;4.654;2024-02-26T06:36:02;6.10;99.90
26336;DHT22;14047;50.936;4.654;2024-02-26T06:38:28;6.10;99.90
26336;DHT22;14047;50.936;4.654;2024-02-26T06:40:54;6.10;99.90
26336;DHT22;14047;50.936;4.654;2024-02-26T06:43:20;6.10;99.90
26336;DHT22;14047;50.936;4.654;2024-02-26T06:45:46;6.10;99.90
26336;DHT22;14047;50.936;4.654;2024-02-26T06:48:12;6.00;99.90
26336;DHT22;14047;50.936;4.654;2024-02-26T06:50:38;5.90;99.90
26336;DHT22;14047;50.936;4.654;2024-02-26T06:53:04;5.90;99.90
26336;DHT22;14047;50.936;4.654;2024-02-26T06:55:30;5.90;99.90
26336;DHT22;14047;50.936;4.654;2024-02-26T06:57:56;6.00;99.90
26336;DHT22;14047;50.936;4.654;2024-02-26T07:00:22;5.90;99.90
26336;DHT22;14047;50.936;4.654;2024-02-26T07:02:48;5.90;99.90
26336;DHT22;14047;50.936;4.654;2024-02-26T07:05:14;5.90;99.90
26336;DHT22;14047;50.936;4.654;2024-02-26T07:07:40;5.90;99.90
26336;DHT22;14047;50.936;4.654;2024-02-26T07:10:06;5.90;99.90
26336;DHT22;14047;50.936;4.654;2024-02-26T07:12:32;5.90;99.90
26336;DHT22;14047;50.936;4.654;2024-02-26T07:14:58;5.80;99.90
26336;DHT22;14047;50.936;4.654;2024-02-26T07:17:24;5.80;99.90
26336;DHT22;14047;50.936;4.654;2024-02-26T07:19:50;5.90;99.90
26336;DHT22;14047;50.936;4.654;2024-02-26T07:22:16;5.80;99.90
26336;DHT22;14047;50.936;4.654;2024-02-26T07:24:42;5.80;99.90
26336;DHT22;14047;50.936;4.654;2024-02-26T07:27:08;5.90;99.90
26336;DHT22;14047;50.936;4.654;2024-02-26T07:29:34;5.90;99.90
26336;DHT22;14047;50.936;4.654;2024-02-26T07:32:00;5.90;99.90
26336;DHT22;14047;50.936;4.654;2024-02-26T07:34:25;5.90;99.90
26336;DHT22;14047;50.936;4.654;2024-02-26T07:36:55;5.90;99.90
26336;DHT22;14047;50.936;4.654;2024-02-26T07:39:22;5.80;99.90
26336;DHT22;14047;50.936;4.654;2024-02-26T07:41:48;5.90;99.90
26336;DHT22;14047;50.936;4.654;2024-02-26T07:44:17;5.90;99.90
26336;DHT22;14047;50.936;4.654;2024-02-26T07:46:44;5.80;99.90
26336;DHT22;14047;50.936;4.654;2024-02-26T07:49:10;5.90;99.90
26336;DHT22;14047;50.936;4.654;2024-02-26T07:51:36;5.90;99.90
26336;DHT22;14047;50.936;4.654;2024-02-26T07:54:02;5.90;99.90
26336;DHT22;14047;50.936;4.654;2024-02-26T07:56:28;5.90;99.90
26336;DHT22;14047;50.936;4.654;2024-02-26T07:58:54;5.90;99.90
26336;DHT22;14047;50.936;4.654;2024-02-26T08:01:20;6.10;99.90
26336;DHT22;14047;50.936;4.654;2024-02-26T08:03:45;6.00;99.90
26336;DHT22;14047;50.936;4.654;2024-02-26T08:06:11;6.00;99.90
26336;DHT22;14047;50.936;4.654;2024-02-26T08:08:37;5.90;99.90
26336;DHT22;14047;50.936;4.654;2024-02-26T08:11:03;6.00;99.90
26336;DHT22;14047;50.936;4.654;2024-02-26T08:13:29;5.90;99.90
26336;DHT22;14047;50.936;4.654;2024-02-26T08:15:55;5.90;99.90
26336;DHT22;14047;50.936;4.654;2024-02-26T08:18:24;5.90;99.90
26336;DHT22;14047;50.936;4.654;2024-02-26T08:20:51;5.90;99.90
26336;DHT22;14047;50.936;4.654;2024-02-26T08:23:18;5.80;99.90
26336;DHT22;14047;50.936;4.654;2024-02-26T08:25:44;5.90;99.90
26336;DHT22;14047;50.936;4.654;2024-02-26T08:28:10;5.80;99.90
26336;DHT22;14047;50.936;4.654;2024-02-26T08:30:39;5.90;99.90
26336;DHT22;14047;50.936;4.654;2024-02-26T08:33:05;6.00;99.90
26336;DHT22;14047;50.936;4.654;2024-02-26T08:35:30;6.00;99.90
26336;DHT22;14047;50.936;4.654;2024-02-26T08:37:56;5.90;99.90
26336;DHT22;14047;50.936;4.654;2024-02-26T08:40:22;5.90;99.90
26336;DHT22;14047;50.936;4.654;2024-02-26T08:42:48;5.90;99.90
26336;DHT22;14047;50.936;4.654;2024-02-26T08:45:14;5.90;99.90
26336;DHT22;14047;50.936;4.654;2024-02-26T08:47:40;5.90;99.90
26336;DHT22;14047;50.936;4.654;2024-02-26T08:50:06;5.90;99.90
26336;DHT22;14047;50.936;4.654;2024-02-26T08:52:35;5.80;99.90
26336;DHT22;14047;50.936;4.654;2024-02-26T08:55:01;5.80;99.90
26336;DHT22;14047;50.936;4.654;2024-02-26T08:57:27;5.90;99.90
26336;DHT22;14047;50.936;4.654;2024-02-26T08:59:53;5.90;99.90
26336;DHT22;14047;50.936;4.654;2024-02-26T09:02:18;5.90;99.90
26336;DHT22;14047;50.936;4.654;2024-02-26T09:04:45;5.90;99.90
26336;DHT22;14047;50.936;4.654;2024-02-26T09:07:11;5.90;99.90
26336;DHT22;14047;50.936;4.654;2024-02-26T09:09:37;5.90;99.90
26336;DHT22;14047;50.936;4.654;2024-02-26T09:12:03;5.90;99.90
26336;DHT22;14047;50.936;4.654;2024-02-26T09:14:29;5.90;99.90
26336;DHT22;14047;50.936;4.654;2024-02-26T09:16:55;6.00;99.90
26336;DHT22;14047;50.936;4.654;2024-02-26T09:19:21;6.00;99.90
26336;DHT22;14047;50.936;4.654;2024-02-26T09:21:47;6.00;99.90
26336;DHT22;14047;50.936;4.654;2024-02-26T09:24:13;6.00;99.90
26336;DHT22;14047;50.936;4.654;2024-02-26T09:26:39;6.00;99.90
26336;DHT22;14047;50.936;4.654;2024-02-26T09:29:05;6.10;99.90
26336;DHT22;14047;50.936;4.654;2024-02-26T09:31:31;6.10;99.90
26336;DHT22;14047;50.936;4.654;2024-02-26T09:33:57;6.10;99.90
26336;DHT22;14047;50.936;4.654;2024-02-26T09:36:23;6.10;99.90
26336;DHT22;14047;50.936;4.654;2024-02-26T09:38:49;6.10;99.90
26336;DHT22;14047;50.936;4.654;2024-02-26T09:41:16;6.10;99.90
26336;DHT22;14047;50.936;4.654;2024-02-26T09:43:44;6.10;99.90
26336;DHT22;14047;50.936;4.654;2024-02-26T09:46:11;6.00;99.90
26336;DHT22;14047;50.936;4.654;2024-02-26T09:48:37;6.10;99.90
26336;DHT22;14047;50.936;4.654;2024-02-26T09:51:04;6.00;99.90
26336;DHT22;14047;50.936;4.654;2024-02-26T09:53:32;6.00;99.90
26336;DHT22;14047;50.936;4.654;2024-02-26T09:55:58;6.20;99.90
26336;DHT22;14047;50.936;4.654;2024-02-26T09:58:27;6.10;99.90
26336;DHT22;14047;50.936;4.654;2024-02-26T10:00:56;6.10;99.90
26336;DHT22;14047;50.936;4.654;2024-02-26T10:03:39;6.10;99.90
26336;DHT22;14047;50.936;4.654;2024-02-26T10:06:08;6.00;99.90
26336;DHT22;14047;50.936;4.654;2024-02-26T10:08:35;6.10;99.90
26336;DHT22;14047;50.936;4.654;2024-02-26T10:11:04;6.10;99.90
26336;DHT22;14047;50.936;4.654;2024-02-26T10:13:30;6.10;99.90
26336;DHT22;14047;50.936;4.654;2024-02-26T10:15:56;6.10;99.90
26336;DHT22;14047;50.936;4.654;2024-02-26T10:18:26;6.10;99.90
26336;DHT22;14047;50.936;4.654;2024-02-26T10:21:00;6.00;99.90
26336;DHT22;14047;50.936;4.654;2024-02-26T10:23:27;5.90;99.90
26336;DHT22;14047;50.936;4.654;2024-02-26T10:25:54;5.90;99.90
26336;DHT22;14047;50.936;4.654;2024-02-26T10:28:21;5.90;99.90
26336;DHT22;14047;50.936;4.654;2024-02-26T10:30:47;5.90;99.90
26336;DHT22;14047;50.936;4.654;2024-02-26T10:33:13;6.00;99.90
26336;DHT22;14047;50.936;4.654;2024-02-26T10:35:45;6.00;99.90
26336;DHT22;14047;50.936;4.654;2024-02-26T10:38:11;6.10;99.90
26336;DHT22;14047;50.936;4.654;2024-02-26T10:40:37;6.00;99.90
26336;DHT22;14047;50.936;4.654;2024-02-26T10:43:03;6.00;99.90
26336;DHT22;14047;50.936;4.654;2024-02-26T10:45:29;6.00;99.90
26336;DHT22;14047;50.936;4.654;2024-02-26T10:47:57;5.90;99.90
26336;DHT22;14047;50.936;4.654;2024-02-26T10:50:24;5.90;99.90
26336;DHT22;14047;50.936;4.654;2024-02-26T10:52:50;5.80;99.90
26336;DHT22;14047;50.936;4.654;2024-02-26T10:55:17;5.80;99.90
26336;DHT22;14047;50.936;4.654;2024-02-26T10:57:45;5.60;99.90
26336;DHT22;14047;50.936;4.654;2024-02-26T11:00:14;5.60;99.90
26336;DHT22;14047;50.936;4.654;2024-02-26T11:02:41;5.80;99.90
26336;DHT22;14047;50.936;4.654;2024-02-26T11:05:08;5.80;99.90
26336;DHT22;14047;50.936;4.654;2024-02-26T11:07:37;5.80;99.90
26336;DHT22;14047;50.936;4.654;2024-02-26T11:10:05;5.70;99.90
26336;DHT22;14047;50.936;4.654;2024-02-26T11:12:35;5.70;99.90
26336;DHT22;14047;50.936;4.654;2024-02-26T11:15:03;5.70;99.90
26336;DHT22;14047;50.936;4.654;2024-02-26T11:17:30;5.80;99.90
26336;DHT22;14047;50.936;4.654;2024-02-26T11:19:58;5.70;99.90
26336;DHT22;14047;50.936;4.654;2024-02-26T11:22:28;5.70;99.90
26336;DHT22;14047;50.936;4.654;2024-02-26T11:24:57;5.70;99.90
26336;DHT22;14047;50.936;4.654;2024-02-26T11:27:29;5.70;99.90
26336;DHT22;14047;50.936;4.654;2024-02-26T11:29:59;5.80;99.90
26336;DHT22;14047;50.936;4.654;2024-02-26T11:32:27;5.80;99.90
26336;DHT22;14047;50.936;4.654;2024-02-26T11:34:54;5.80;99.90
26336;DHT22;14047;50.936;4.654;2024-02-26T11:37:20;5.80;99.90
26336;DHT22;14047;50.936;4.654;2024-02-26T11:39:46;5.80;99.90
26336;DHT22;14047;50.936;4.654;2024-02-26T11:42:16;5.80;99.90
26336;DHT22;14047;50.936;4.654;2024-02-26T11:44:42;5.80;99.90
26336;DHT22;14047;50.936;4.654;2024-02-26T11:47:19;5.70;99.90
26336;DHT22;14047;50.936;4.654;2024-02-26T11:49:46;5.70;99.90
26336;DHT22;14047;50.936;4.654;2024-02-26T11:52:13;5.70;99.90
26336;DHT22;14047;50.936;4.654;2024-02-26T11:54:53;5.70;99.90
26336;DHT22;14047;50.936;4.654;2024-02-26T11:57:24;5.80;99.90
26336;DHT22;14047;50.936;4.654;2024-02-26T11:59:51;5.80;99.90
26336;DHT22;14047;50.936;4.654;2024-02-26T12:02:40;5.80;99.90
26336;DHT22;14047;50.936;4.654;2024-02-26T12:05:10;5.60;99.90
26336;DHT22;14047;50.936;4.654;2024-02-26T12:07:40;5.70;99.90
26336;DHT22;14047;50.936;4.654;2024-02-26T12:10:25;5.80;99.90
26336;DHT22;14047;50.936;4.654;2024-02-26T12:15:23;5.80;99.90
26336;DHT22;14047;50.936;4.654;2024-02-26T12:17:50;5.70;99.90
26336;DHT22;14047;50.936;4.654;2024-02-26T12:20:17;5.80;99.90
26336;DHT22;14047;50.936;4.654;2024-02-26T12:22:45;5.80;99.90
26336;DHT22;14047;50.936;4.654;2024-02-26T12:25:15;5.80;99.90
26336;DHT22;14047;50.936;4.654;2024-02-26T12:27:41;5.80;99.90
26336;DHT22;14047;50.936;4.654;2024-02-26T12:30:08;5.70;99.90
26336;DHT22;14047;50.936;4.654;2024-02-26T12:32:35;5.70;99.90
26336;DHT22;14047;50.936;4.654;2024-02-26T12:35:01;5.80;99.90
26336;DHT22;14047;50.936;4.654;2024-02-26T12:37:28;5.80;99.90
26336;DHT22;14047;50.936;4.654;2024-02-26T12:39:54;5.80;99.90
26336;DHT22;14047;50.936;4.654;2024-02-26T12:42:20;5.70;99.90
26336;DHT22;14047;50.936;4.654;2024-02-26T12:44:46;5.80;99.90
26336;DHT22;14047;50.936;4.654;2024-02-26T12:47:12;5.70;99.90
26336;DHT22;14047;50.936;4.654;2024-02-26T12:49:48;5.70;99.90
26336;DHT22;14047;50.936;4.654;2024-02-26T12:52:16;5.80;99.90
26336;DHT22;14047;50.936;4.654;2024-02-26T12:54:43;5.90;99.90
26336;DHT22;14047;50.936;4.654;2024-02-26T12:57:10;5.90;99.90
26336;DHT22;14047;50.936;4.654;2024-02-26T12:59:37;5.90;99.90
26336;DHT22;14047;50.936;4.654;2024-02-26T13:02:04;5.90;99.90
26336;DHT22;14047;50.936;4.654;2024-02-26T13:04:31;6.00;99.90
26336;DHT22;14047;50.936;4.654;2024-02-26T13:06:57;6.00;99.90
26336;DHT22;14047;50.936;4.654;2024-02-26T13:09:30;6.00;99.90
26336;DHT22;14047;50.936;4.654;2024-02-26T13:11:57;5.80;99.90
26336;DHT22;14047;50.936;4.654;2024-02-26T13:14:24;5.60;99.90
26336;DHT22;14047;50.936;4.654;2024-02-26T13:16:57;5.70;99.90
26336;DHT22;14047;50.936;4.654;2024-02-26T13:19:24;5.80;99.90
26336;DHT22;14047;50.936;4.654;2024-02-26T13:21:50;5.80;99.90
26336;DHT22;14047;50.936;4.654;2024-02-26T13:24:16;5.70;99.90
26336;DHT22;14047;50.936;4.654;2024-02-26T13:26:43;5.70;99.90
26336;DHT22;14047;50.936;4.654;2024-02-26T13:29:17;5.70;99.90
26336;DHT22;14047;50.936;4.654;2024-02-26T13:31:43;5.80;99.90
26336;DHT22;14047;50.936;4.654;2024-02-26T13:34:09;5.90;99.90
26336;DHT22;14047;50.936;4.654;2024-02-26T13:36:35;5.80;99.90
26336;DHT22;14047;50.936;4.654;2024-02-26T13:39:01;5.80;99.90
26336;DHT22;14047;50.936;4.654;2024-02-26T13:41:30;5.80;99.90
26336;DHT22;14047;50.936;4.654;2024-02-26T13:43:57;5.80;99.90
26336;DHT22;14047;50.936;4.654;2024-02-26T13:46:23;5.90;99.90
26336;DHT22;14047;50.936;4.654;2024-02-26T13:48:49;5.90;99.90
26336;DHT22;14047;50.936;4.654;2024-02-26T13:51:15;5.90;99.90
26336;DHT22;14047;50.936;4.654;2024-02-26T13:53:43;5.90;99.90
26336;DHT22;14047;50.936;4.654;2024-02-26T13:56:10;5.80;99.90
26336;DHT22;14047;50.936;4.654;2024-02-26T13:58:36;5.90;99.90
26336;DHT22;14047;50.936;4.654;2024-02-26T14:01:02;5.90;99.90
26336;DHT22;14047;50.936;4.654;2024-02-26T14:03:29;5.80;99.90
26336;DHT22;14047;50.936;4.654;2024-02-26T14:05:55;5.90;99.90
26336;DHT22;14047;50.936;4.654;2024-02-26T14:08:22;5.90;99.90
26336;DHT22;14047;50.936;4.654;2024-02-26T14:10:49;5.90;99.90
26336;DHT22;14047;50.936;4.654;2024-02-26T14:13:14;5.90;99.90
26336;DHT22;14047;50.936;4.654;2024-02-26T14:15:40;5.90;99.90
26336;DHT22;14047;50.936;4.654;2024-02-26T14:18:07;5.90;99.90
26336;DHT22;14047;50.936;4.654;2024-02-26T14:20:33;5.90;99.90
26336;DHT22;14047;50.936;4.654;2024-02-26T14:22:59;5.90;99.90
26336;DHT22;14047;50.936;4.654;2024-02-26T14:25:26;5.90;99.90
26336;DHT22;14047;50.936;4.654;2024-02-26T14:27:52;5.90;99.90
26336;DHT22;14047;50.936;4.654;2024-02-26T14:30:18;5.90;99.90
26336;DHT22;14047;50.936;4.654;2024-02-26T14:32:44;6.00;99.90
26336;DHT22;14047;50.936;4.654;2024-02-26T14:35:10;6.00;99.90
26336;DHT22;14047;50.936;4.654;2024-02-26T14:37:36;6.00;99.90
26336;DHT22;14047;50.936;4.654;2024-02-26T14:40:02;5.90;99.90
26336;DHT22;14047;50.936;4.654;2024-02-26T14:42:29;5.90;99.90
26336;DHT22;14047;50.936;4.654;2024-02-26T14:44:55;6.00;99.90
26336;DHT22;14047;50.936;4.654;2024-02-26T14:47:21;6.00;99.90
26336;DHT22;14047;50.936;4.654;2024-02-26T14:49:47;6.10;99.90
26336;DHT22;14047;50.936;4.654;2024-02-26T14:52:14;6.10;99.90
26336;DHT22;14047;50.936;4.654;2024-02-26T14:54:40;6.00;99.90
26336;DHT22;14047;50.936;4.654;2024-02-26T14:57:06;6.00;99.90
26336;DHT22;14047;50.936;4.654;2024-02-26T14:59:33;6.00;99.90
26336;DHT22;14047;50.936;4.654;2024-02-26T15:01:59;5.90;99.90
26336;DHT22;14047;50.936;4.654;2024-02-26T15:04:28;5.90;99.90
26336;DHT22;14047;50.936;4.654;2024-02-26T15:06:54;5.90;99.90
26336;DHT22;14047;50.936;4.654;2024-02-26T15:09:20;5.80;99.90
26336;DHT22;14047;50.936;4.654;2024-02-26T15:11:46;5.80;99.90
26336;DHT22;14047;50.936;4.654;2024-02-26T15:14:12;5.80;99.90
26336;DHT22;14047;50.936;4.654;2024-02-26T15:16:38;5.90;99.90
26336;DHT22;14047;50.936;4.654;2024-02-26T15:19:04;5.80;99.90
26336;DHT22;14047;50.936;4.654;2024-02-26T15:21:30;5.80;99.90
26336;DHT22;14047;50.936;4.654;2024-02-26T15:23:56;5.80;99.90
26336;DHT22;14047;50.936;4.654;2024-02-26T15:26:22;5.80;99.90
26336;DHT22;14047;50.936;4.654;2024-02-26T15:28:48;5.80;99.90
26336;DHT22;14047;50.936;4.654;2024-02-26T15:31:16;5.90;99.90
26336;DHT22;14047;50.936;4.654;2024-02-26T15:33:42;5.80;99.90
26336;DHT22;14047;50.936;4.654;2024-02-26T15:36:09;6.00;99.90
26336;DHT22;14047;50.936;4.654;2024-02-26T15:38:36;5.90;99.90
26336;DHT22;14047;50.936;4.654;2024-02-26T15:41:02;5.80;99.90
26336;DHT22;14047;50.936;4.654;2024-02-26T15:43:28;5.80;99.90